DAOO

Details ICAO DAOO (ORN)
Name ES SENIA
Region Algeria
Timezone Africa/Algiers (UTC+1.0)
Plans Departing 111
Arriving 131
Stats Elevation 295 ft / 90 m (AMSL)
Location 35.623858° -0.621183°
Runways 1
Magnetic Variation 0.151° E
Sunrise 2017-12-13 07:04:50 UTC / 2017-12-13 08:04:50 Local
Sunset 2017-12-13 16:51:23 UTC / 2017-12-13 17:51:23 Local
Advertisement - Login to hide

Runways

ID Width Length Bearing (true) Bearing (mag) Surface Threshold Offset Overrun Length
07 148 ft / 45 m 10,006 ft / 3,050 m 67.06° 66.91° Asphalt 0 ft / 0 m 328 ft / 100 m
25 148 ft / 45 m 10,006 ft / 3,050 m 247.08° 246.93° Asphalt 196 ft / 60 m 0 ft / 0 m

Map

Weather


0- 5 10 15 20 25 30 35+ Temperature / ° C

Clouds and Precipitation
Forecast for 2017-12-13 18:00 UTC. Updated 2 hours ago

Ground ~20,000 ft ~40,000 ft Winds

METAR

DAOO 131900Z 04003KT CAVOK 11/07 Q1027

TAF

TAF DAOO 131700Z 1318/1418 VRB02KT CAVOK BECMG 1406/1409 22010KT BECMG 1412/1415 28012KT

Frequencies

Tower 118.10 MHz ORAN TWR
Approach 128.20 MHz ORAN APP
Tower 119.70 MHz ORAN TWR
Approach 121.10 MHz ORAN APP
Warning: Do not use this data for real-world aviation or navigation. No guarantee of current accuracy is given.